Time;durP1;ratioP1;P1;durP2;ratioP2;P2;SDS_P1;SDS_P2;PMS_P1;PMS_P2;Temp;Humidity;BMP_temperature;BMP_pressure;BME280_temperature;BME280_humidity;BME280_pressure;Samples;Min_cycle;Max_cycle;Signal;HPM_P1;HPM_P2
2022/03/15 00:01:33;;;;;;;30.50;24.38;;;;;;;;;;4956223;29;20182;-61
2022/03/15 00:04:03;;;;;;;31.70;25.45;;;;;;;;;;4956262;28;20044;-61
2022/03/15 00:06:34;;;;;;;30.23;24.75;;;;;;;;;;4955838;28;20102;-61
2022/03/15 00:09:03;;;;;;;32.53;24.23;;;;;;;;;;4956222;28;20055;-61
2022/03/15 00:11:34;;;;;;;32.63;24.40;;;;;;;;;;4955373;29;20047;-61
2022/03/15 00:14:09;;;;;;;34.15;26.42;;;;;;;;;;4955381;29;20043;-61
2022/03/15 00:16:38;;;;;;;29.15;25.95;;;;;;;;;;4955530;29;20051;-61
2022/03/15 00:19:07;;;;;;;36.22;28.33;;;;;;;;;;4955718;29;20521;-61
2022/03/15 00:21:37;;;;;;;31.70;25.85;;;;;;;;;;4955234;28;20041;-61
2022/03/15 00:24:08;;;;;;;34.55;26.80;;;;;;;;;;4955529;28;20057;-61
2022/03/15 00:26:36;;;;;;;33.00;26.88;;;;;;;;;;4953844;29;20100;-61
2022/03/15 00:29:11;;;;;;;33.33;29.50;;;;;;;;;;4955663;28;20101;-61
2022/03/15 00:31:39;;;;;;;35.28;28.67;;;;;;;;;;4955594;28;20518;-61
2022/03/15 00:34:07;;;;;;;38.78;28.00;;;;;;;;;;4953884;28;20051;-61
2022/03/15 00:36:37;;;;;;;38.08;27.73;;;;;;;;;;4955331;28;20126;-61
2022/03/15 00:39:05;;;;;;;32.95;25.30;;;;;;;;;;4955442;29;20130;-61
2022/03/15 00:41:35;;;;;;;30.05;24.13;;;;;;;;;;4955838;28;20051;-61
2022/03/15 00:44:04;;;;;;;31.20;24.02;;;;;;;;;;4951896;28;20051;-61
2022/03/15 00:46:32;;;;;;;33.60;24.60;;;;;;;;;;4954048;29;20055;-61
2022/03/15 00:49:01;;;;;;;32.53;25.00;;;;;;;;;;4966095;28;20054;-61
2022/03/15 00:51:34;;;;;;;32.00;26.75;;;;;;;;;;4954849;28;20043;-60
2022/03/15 00:54:03;;;;;;;30.35;25.60;;;;;;;;;;4955103;28;20051;-61
2022/03/15 00:56:33;;;;;;;32.22;25.23;;;;;;;;;;4954139;29;20418;-61
2022/03/15 00:59:05;;;;;;;34.22;26.38;;;;;;;;;;4955183;29;20130;-61
2022/03/15 01:01:33;;;;;;;33.55;24.50;;;;;;;;;;4954140;29;20147;-60
2022/03/15 01:04:03;;;;;;;38.00;27.42;;;;;;;;;;4954951;28;20150;-61
2022/03/15 01:06:32;;;;;;;36.13;28.83;;;;;;;;;;4955469;28;20055;-61
2022/03/15 01:09:03;;;;;;;30.70;26.55;;;;;;;;;;4955677;29;20110;-61
2022/03/15 01:11:31;;;;;;;34.53;26.70;;;;;;;;;;4955266;29;20042;-61
2022/03/15 01:14:00;;;;;;;32.65;27.35;;;;;;;;;;4954841;28;20450;-61
2022/03/15 01:16:29;;;;;;;35.13;27.60;;;;;;;;;;4969773;28;20495;-62
2022/03/15 01:18:58;;;;;;;33.15;27.58;;;;;;;;;;4955183;28;20549;-60
2022/03/15 01:21:29;;;;;;;33.35;25.27;;;;;;;;;;4955154;28;20106;-60
2022/03/15 01:23:58;;;;;;;31.70;27.33;;;;;;;;;;4954434;29;20051;-60
2022/03/15 01:26:28;;;;;;;29.35;25.50;;;;;;;;;;4955152;28;20043;-60
2022/03/15 01:28:56;;;;;;;38.42;26.63;;;;;;;;;;4954052;29;20054;-60
2022/03/15 01:31:25;;;;;;;33.10;26.05;;;;;;;;;;4954673;29;20047;-60
2022/03/15 01:33:53;;;;;;;32.65;26.02;;;;;;;;;;4954142;29;20055;-60
2022/03/15 01:36:21;;;;;;;32.22;27.13;;;;;;;;;;4955842;29;20047;-60
2022/03/15 01:38:52;;;;;;;39.65;26.33;;;;;;;;;;4955172;28;20058;-60
2022/03/15 01:41:21;;;;;;;33.05;24.55;;;;;;;;;;4970210;28;20138;-60
2022/03/15 01:43:56;;;;;;;29.63;26.40;;;;;;;;;;4955332;28;20060;-60
2022/03/15 01:46:24;;;;;;;36.92;26.90;;;;;;;;;;4955242;29;20043;-60
2022/03/15 01:48:52;;;;;;;36.45;26.42;;;;;;;;;;4953750;29;20047;-60
2022/03/15 01:51:21;;;;;;;32.38;25.80;;;;;;;;;;4955254;29;20035;-60
2022/03/15 01:53:50;;;;;;;33.53;25.75;;;;;;;;;;4954870;29;20055;-60
2022/03/15 01:56:20;;;;;;;28.70;23.60;;;;;;;;;;4953746;29;20044;-60
2022/03/15 01:58:51;;;;;;;31.25;24.27;;;;;;;;;;4969805;28;20063;-60
2022/03/15 02:01:21;;;;;;;35.92;27.30;;;;;;;;;;4969906;28;20047;-60
2022/03/15 02:03:50;;;;;;;30.63;24.58;;;;;;;;;;4954892;29;20459;-60
2022/03/15 02:06:21;;;;;;;34.03;27.05;;;;;;;;;;4954027;29;20051;-60
2022/03/15 02:08:49;;;;;;;36.42;28.17;;;;;;;;;;4954923;28;20055;-62
2022/03/15 02:11:17;;;;;;;38.67;29.52;;;;;;;;;;4954741;29;20406;-62
2022/03/15 02:13:46;;;;;;;33.08;26.25;;;;;;;;;;4955016;28;20041;-62
2022/03/15 02:16:16;;;;;;;31.10;25.17;;;;;;;;;;4954882;28;20047;-62
2022/03/15 02:18:45;;;;;;;31.50;26.02;;;;;;;;;;4954886;28;20134;-62
2022/03/15 02:21:15;;;;;;;33.25;28.50;;;;;;;;;;4953310;29;20134;-62
2022/03/15 02:23:45;;;;;;;38.80;27.30;;;;;;;;;;4954995;28;20462;-62
2022/03/15 02:26:13;;;;;;;35.10;27.52;;;;;;;;;;4954760;28;20130;-62
2022/03/15 02:28:45;;;;;;;34.33;29.50;;;;;;;;;;4954829;29;20070;-62
2022/03/15 02:31:12;;;;;;;33.90;27.25;;;;;;;;;;4954704;29;20082;-62
2022/03/15 02:33:41;;;;;;;36.15;28.60;;;;;;;;;;4954388;29;20380;-62
2022/03/15 02:36:12;;;;;;;34.42;29.20;;;;;;;;;;4954624;28;20075;-62
2022/03/15 02:38:40;;;;;;;36.15;28.50;;;;;;;;;;4954973;29;20079;-62
2022/03/15 02:41:09;;;;;;;32.08;26.75;;;;;;;;;;4953640;29;20090;-62
2022/03/15 02:43:38;;;;;;;33.03;25.85;;;;;;;;;;4955114;28;20136;-62
2022/03/15 02:46:10;;;;;;;38.30;29.13;;;;;;;;;;4956967;29;20454;-62
2022/03/15 02:48:58;;;;;;;39.15;28.63;;;;;;;;;;4957657;29;20051;-62
2022/03/15 02:51:26;;;;;;;38.90;30.10;;;;;;;;;;4958039;29;20051;-62
2022/03/15 02:53:54;;;;;;;34.03;27.45;;;;;;;;;;4957686;29;20503;-60
2022/03/15 02:56:23;;;;;;;34.67;28.30;;;;;;;;;;4957972;28;20420;-60
2022/03/15 02:58:51;;;;;;;33.25;27.13;;;;;;;;;;4957656;28;20122;-60
2022/03/15 03:01:20;;;;;;;34.55;27.70;;;;;;;;;;4957874;29;20043;-60
2022/03/15 03:03:49;;;;;;;30.23;26.48;;;;;;;;;;4957608;29;20051;-60
2022/03/15 03:06:18;;;;;;;34.25;25.92;;;;;;;;;;4957868;29;20053;-60
2022/03/15 03:08:48;;;;;;;31.13;26.85;;;;;;;;;;4957611;29;20047;-60
2022/03/15 03:11:17;;;;;;;30.92;26.25;;;;;;;;;;4957423;29;20102;-60
2022/03/15 03:13:47;;;;;;;30.23;25.33;;;;;;;;;;4956331;29;20043;-60
2022/03/15 03:16:17;;;;;;;32.58;25.38;;;;;;;;;;4957551;29;20050;-60
2022/03/15 03:18:48;;;;;;;35.97;26.02;;;;;;;;;;4957544;29;20043;-60
2022/03/15 03:21:17;;;;;;;32.65;27.17;;;;;;;;;;4957351;29;20063;-59
2022/03/15 03:23:45;;;;;;;40.28;27.02;;;;;;;;;;4957616;29;20110;-60
2022/03/15 03:26:15;;;;;;;33.35;25.33;;;;;;;;;;4955875;29;20059;-60
2022/03/15 03:28:44;;;;;;;33.03;26.15;;;;;;;;;;4957589;28;20039;-60
2022/03/15 03:31:14;;;;;;;36.53;27.15;;;;;;;;;;4957140;28;20147;-60
2022/03/15 03:33:44;;;;;;;34.40;26.60;;;;;;;;;;4957125;28;20047;-60
2022/03/15 03:36:13;;;;;;;36.22;27.02;;;;;;;;;;4957175;28;20055;-59
2022/03/15 03:38:43;;;;;;;31.52;26.00;;;;;;;;;;4957233;28;20126;-59
2022/03/15 03:41:12;;;;;;;32.80;26.80;;;;;;;;;;4957139;28;20062;-59
2022/03/15 03:43:42;;;;;;;33.75;26.67;;;;;;;;;;4957180;28;20063;-59
2022/03/15 03:46:10;;;;;;;35.58;27.00;;;;;;;;;;4956719;29;20055;-61
2022/03/15 03:48:40;;;;;;;30.80;26.73;;;;;;;;;;4957335;28;20043;-61
2022/03/15 03:51:10;;;;;;;32.85;26.92;;;;;;;;;;4956695;28;20510;-60
2022/03/15 03:53:39;;;;;;;32.17;27.65;;;;;;;;;;4956590;28;20498;-63
2022/03/15 03:56:08;;;;;;;32.20;26.33;;;;;;;;;;4956781;28;20066;-61
2022/03/15 03:58:37;;;;;;;41.40;27.65;;;;;;;;;;4956482;29;20565;-59
2022/03/15 04:01:06;;;;;;;29.60;25.13;;;;;;;;;;4956821;29;20252;-61
2022/03/15 04:03:35;;;;;;;45.90;27.23;;;;;;;;;;4955243;29;20063;-62
2022/03/15 04:06:05;;;;;;;32.33;26.25;;;;;;;;;;4956741;28;20094;-62
2022/03/15 04:08:32;;;;;;;30.15;26.65;;;;;;;;;;4956737;28;20122;-62
2022/03/15 04:11:04;;;;;;;36.13;27.55;;;;;;;;;;4956763;28;20055;-62
2022/03/15 04:13:32;;;;;;;40.65;27.08;;;;;;;;;;4956144;28;20099;-62
2022/03/15 04:16:01;;;;;;;37.53;28.73;;;;;;;;;;4956454;29;20047;-60
2022/03/15 04:18:30;;;;;;;36.28;26.38;;;;;;;;;;4956298;29;20043;-61
2022/03/15 04:20:58;;;;;;;35.47;27.95;;;;;;;;;;4956159;28;20142;-61
2022/03/15 04:23:27;;;;;;;35.92;26.02;;;;;;;;;;4956173;29;20051;-61
2022/03/15 04:25:57;;;;;;;34.67;27.60;;;;;;;;;;4956302;29;20563;-62
2022/03/15 04:28:25;;;;;;;37.13;28.27;;;;;;;;;;4955226;29;20466;-61
2022/03/15 04:30:55;;;;;;;37.72;29.05;;;;;;;;;;4956434;28;20047;-61
2022/03/15 04:33:24;;;;;;;33.58;29.63;;;;;;;;;;4956087;28;20558;-61
2022/03/15 04:35:52;;;;;;;35.38;29.17;;;;;;;;;;4955756;28;20059;-61
2022/03/15 04:38:19;;;;;;;36.67;29.33;;;;;;;;;;4940032;29;20051;-63
2022/03/15 04:40:49;;;;;;;38.20;28.60;;;;;;;;;;4955649;28;20062;-61
2022/03/15 04:43:17;;;;;;;39.40;28.02;;;;;;;;;;4955667;28;20067;-61
2022/03/15 04:45:46;;;;;;;34.10;28.35;;;;;;;;;;4955256;28;20147;-61
2022/03/15 04:48:15;;;;;;;38.83;29.13;;;;;;;;;;4950146;29;20515;-61
2022/03/15 04:50:44;;;;;;;38.35;28.38;;;;;;;;;;4954425;29;20063;-61
2022/03/15 04:53:12;;;;;;;33.70;27.42;;;;;;;;;;4955821;28;20059;-61
2022/03/15 04:55:42;;;;;;;36.22;29.23;;;;;;;;;;4956106;29;20134;-61
2022/03/15 04:58:11;;;;;;;33.40;27.92;;;;;;;;;;4956050;29;20047;-61
2022/03/15 05:00:41;;;;;;;40.50;32.53;;;;;;;;;;4955807;28;20047;-61
2022/03/15 05:03:09;;;;;;;34.17;30.20;;;;;;;;;;4955387;28;20406;-61
2022/03/15 05:05:37;;;;;;;38.78;28.75;;;;;;;;;;4955315;28;20098;-61
2022/03/15 05:08:07;;;;;;;38.28;30.85;;;;;;;;;;4954775;28;20455;-61
2022/03/15 05:13:22;;;;;;;40.97;30.23;;;;;;;;;;4955242;28;20402;-61
2022/03/15 05:15:52;;;;;;;37.47;29.85;;;;;;;;;;4955652;28;20043;-61
2022/03/15 05:18:23;;;;;;;35.80;30.75;;;;;;;;;;4955690;28;20051;-61
2022/03/15 05:20:52;;;;;;;41.75;30.40;;;;;;;;;;4955594;28;20082;-61
2022/03/15 05:23:20;;;;;;;37.80;31.83;;;;;;;;;;4955398;28;20067;-61
2022/03/15 05:25:49;;;;;;;43.33;31.65;;;;;;;;;;4955585;28;20409;-61
2022/03/15 05:28:18;;;;;;;47.00;32.38;;;;;;;;;;4955434;28;20134;-61
2022/03/15 05:30:47;;;;;;;43.20;31.65;;;;;;;;;;4955292;28;20133;-61
2022/03/15 05:33:15;;;;;;;37.60;32.42;;;;;;;;;;4955513;28;20505;-62
2022/03/15 05:35:44;;;;;;;47.92;32.63;;;;;;;;;;4955444;28;20059;-62
2022/03/15 05:38:12;;;;;;;45.67;32.75;;;;;;;;;;4953937;29;20056;-62
2022/03/15 05:40:40;;;;;;;46.33;31.75;;;;;;;;;;4954993;29;20053;-62
2022/03/15 05:43:10;;;;;;;47.88;31.00;;;;;;;;;;4955351;29;20114;-62
2022/03/15 05:45:39;;;;;;;40.65;29.30;;;;;;;;;;4955058;29;20128;-62
2022/03/15 05:48:06;;;;;;;44.47;32.00;;;;;;;;;;4955262;29;20058;-62
2022/03/15 05:50:35;;;;;;;45.58;31.85;;;;;;;;;;4954980;29;20052;-61
2022/03/15 05:53:05;;;;;;;39.30;30.67;;;;;;;;;;4954776;28;20570;-61
2022/03/15 05:55:34;;;;;;;46.13;31.38;;;;;;;;;;4936022;29;20066;-61
2022/03/15 05:58:03;;;;;;;41.75;31.38;;;;;;;;;;4953414;29;20130;-61
2022/03/15 06:00:32;;;;;;;43.58;31.50;;;;;;;;;;4954673;29;20086;-61
2022/03/15 06:03:01;;;;;;;39.85;32.65;;;;;;;;;;4954694;29;20578;-61
2022/03/15 06:05:30;;;;;;;41.75;31.35;;;;;;;;;;4953789;29;20142;-61
2022/03/15 06:08:00;;;;;;;36.92;31.45;;;;;;;;;;4955185;29;20074;-61
2022/03/15 06:10:30;;;;;;;39.25;31.40;;;;;;;;;;4954822;29;20145;-61
2022/03/15 06:13:00;;;;;;;47.97;33.28;;;;;;;;;;4954589;29;20043;-61
2022/03/15 06:15:28;;;;;;;39.35;31.13;;;;;;;;;;4955194;29;20548;-61
2022/03/15 06:18:00;;;;;;;36.85;29.45;;;;;;;;;;4955877;28;20114;-62
2022/03/15 06:20:30;;;;;;;45.60;32.03;;;;;;;;;;4956979;29;20130;-63
2022/03/15 06:23:00;;;;;;;40.38;32.17;;;;;;;;;;4958007;28;20051;-63
2022/03/15 06:25:31;;;;;;;39.63;32.40;;;;;;;;;;4958109;28;20058;-63
2022/03/15 06:27:59;;;;;;;40.28;31.33;;;;;;;;;;4956371;29;20054;-63
2022/03/15 06:30:27;;;;;;;38.88;30.85;;;;;;;;;;4957999;29;20130;-63
2022/03/15 06:32:56;;;;;;;36.58;30.50;;;;;;;;;;4957757;28;20047;-63
2022/03/15 06:35:29;;;;;;;40.20;30.27;;;;;;;;;;4957698;28;20062;-63
2022/03/15 06:38:00;;;;;;;38.05;30.08;;;;;;;;;;4957321;28;20051;-61
2022/03/15 06:40:32;;;;;;;39.97;31.98;;;;;;;;;;4957550;28;20439;-61
2022/03/15 06:43:01;;;;;;;41.28;31.35;;;;;;;;;;4951385;29;20134;-62
2022/03/15 06:45:30;;;;;;;41.35;31.52;;;;;;;;;;4956481;28;20047;-62
2022/03/15 06:47:59;;;;;;;41.45;31.73;;;;;;;;;;4955327;29;20528;-62
2022/03/15 06:50:28;;;;;;;43.60;34.85;;;;;;;;;;4957233;28;20071;-62
2022/03/15 06:52:56;;;;;;;41.70;32.33;;;;;;;;;;4957503;29;20073;-62
2022/03/15 06:55:26;;;;;;;41.17;32.53;;;;;;;;;;4957447;28;20607;-62
2022/03/15 06:57:54;;;;;;;39.70;31.35;;;;;;;;;;4957415;29;20055;-62
2022/03/15 07:00:24;;;;;;;41.97;31.13;;;;;;;;;;4957174;29;20059;-62
2022/03/15 07:02:54;;;;;;;44.28;34.50;;;;;;;;;;4957389;29;20570;-62
2022/03/15 07:05:24;;;;;;;40.85;30.40;;;;;;;;;;4957345;28;20047;-62
2022/03/15 07:07:53;;;;;;;42.35;32.05;;;;;;;;;;4954678;28;20077;-62
2022/03/15 07:10:20;;;;;;;43.05;33.33;;;;;;;;;;4955558;28;20055;-62
2022/03/15 07:12:50;;;;;;;42.15;31.73;;;;;;;;;;4954444;28;20498;-62
2022/03/15 07:15:20;;;;;;;50.75;34.97;;;;;;;;;;4957149;29;20043;-62
2022/03/15 07:18:08;;;;;;;44.40;31.48;;;;;;;;;;4956800;29;20134;-61
2022/03/15 07:20:37;;;;;;;41.92;31.30;;;;;;;;;;4955505;29;20507;-63
2022/03/15 07:23:05;;;;;;;43.53;33.00;;;;;;;;;;4956215;28;20474;-63
2022/03/15 07:25:34;;;;;;;56.40;36.03;;;;;;;;;;4956696;28;20047;-61
2022/03/15 07:28:03;;;;;;;47.45;35.40;;;;;;;;;;4954586;28;20054;-61
2022/03/15 07:30:32;;;;;;;45.95;34.03;;;;;;;;;;4953598;28;20077;-61
2022/03/15 07:33:00;;;;;;;43.60;34.20;;;;;;;;;;4954297;28;20479;-61
2022/03/15 07:35:29;;;;;;;36.10;30.70;;;;;;;;;;4954027;28;20086;-61
2022/03/15 07:37:59;;;;;;;42.17;33.05;;;;;;;;;;4954591;29;20101;-61
2022/03/15 07:40:28;;;;;;;39.60;31.77;;;;;;;;;;4952638;29;20047;-61
2022/03/15 07:42:56;;;;;;;39.90;31.77;;;;;;;;;;4955783;29;20055;-61
2022/03/15 07:45:28;;;;;;;41.42;30.85;;;;;;;;;;4954050;28;20533;-61
2022/03/15 07:47:56;;;;;;;39.97;31.10;;;;;;;;;;4955249;28;20082;-61
2022/03/15 07:50:25;;;;;;;42.15;31.10;;;;;;;;;;4954232;29;20062;-61
2022/03/15 07:52:54;;;;;;;37.90;32.53;;;;;;;;;;4955330;28;20121;-63
2022/03/15 07:55:24;;;;;;;47.28;32.03;;;;;;;;;;4955715;29;20078;-62
2022/03/15 07:57:54;;;;;;;49.63;34.78;;;;;;;;;;4956186;29;20047;-64
2022/03/15 08:00:23;;;;;;;46.90;32.38;;;;;;;;;;4956093;28;20067;-63
2022/03/15 08:02:52;;;;;;;42.40;32.92;;;;;;;;;;4955497;29;20055;-63
2022/03/15 08:05:22;;;;;;;43.47;34.92;;;;;;;;;;4956336;28;20058;-63
2022/03/15 08:07:51;;;;;;;43.75;34.13;;;;;;;;;;4956521;29;20059;-63
2022/03/15 08:10:20;;;;;;;40.17;33.33;;;;;;;;;;4956317;29;20055;-63
2022/03/15 08:12:49;;;;;;;42.53;35.20;;;;;;;;;;4955350;28;20062;-63
2022/03/15 08:15:18;;;;;;;43.83;35.80;;;;;;;;;;4955533;28;20137;-63
2022/03/15 08:17:46;;;;;;;48.90;35.85;;;;;;;;;;4953499;28;20059;-63
2022/03/15 08:20:18;;;;;;;50.13;35.85;;;;;;;;;;4956485;28;20392;-63
2022/03/15 08:22:47;;;;;;;45.67;35.58;;;;;;;;;;4953061;28;20204;-62
2022/03/15 08:25:15;;;;;;;48.60;34.85;;;;;;;;;;4956023;28;20066;-62
2022/03/15 08:27:45;;;;;;;45.13;35.08;;;;;;;;;;4955533;28;20058;-62
2022/03/15 08:30:14;;;;;;;46.88;34.38;;;;;;;;;;4955565;29;20054;-62
2022/03/15 08:32:42;;;;;;;45.75;35.80;;;;;;;;;;4952223;29;20384;-62
2022/03/15 08:35:11;;;;;;;43.00;34.88;;;;;;;;;;4955380;29;20150;-62
2022/03/15 08:37:39;;;;;;;40.58;36.22;;;;;;;;;;4954974;29;20067;-62
2022/03/15 08:40:13;;;;;;;45.30;33.95;;;;;;;;;;4954270;28;20039;-62
2022/03/15 08:42:45;;;;;;;42.90;33.58;;;;;;;;;;4954962;28;20055;-62
2022/03/15 08:45:16;;;;;;;43.10;31.98;;;;;;;;;;4951735;29;20055;-62
2022/03/15 08:47:45;;;;;;;38.95;32.65;;;;;;;;;;4955074;28;20477;-62
2022/03/15 08:50:18;;;;;;;38.92;33.13;;;;;;;;;;4955502;28;20055;-62
2022/03/15 08:52:48;;;;;;;44.17;33.72;;;;;;;;;;4955554;28;20395;-62
2022/03/15 08:55:16;;;;;;;41.08;32.67;;;;;;;;;;4955508;28;20059;-62
2022/03/15 08:57:44;;;;;;;39.45;31.58;;;;;;;;;;4955573;28;20490;-62
2022/03/15 09:00:13;;;;;;;39.40;33.28;;;;;;;;;;4955488;28;20107;-62
2022/03/15 09:02:41;;;;;;;38.38;31.80;;;;;;;;;;4954993;28;20051;-62
2022/03/15 09:05:11;;;;;;;39.50;32.72;;;;;;;;;;4951163;28;20160;-62
2022/03/15 09:07:40;;;;;;;38.88;30.33;;;;;;;;;;4954039;29;20059;-62
2022/03/15 09:10:09;;;;;;;36.35;31.65;;;;;;;;;;4952345;28;20110;-61
2022/03/15 09:12:38;;;;;;;31.90;28.42;;;;;;;;;;4954330;28;20047;-62
2022/03/15 09:15:08;;;;;;;38.03;28.13;;;;;;;;;;4969225;28;20062;-62
2022/03/15 09:17:37;;;;;;;33.20;26.23;;;;;;;;;;4955074;28;20058;-62
2022/03/15 09:20:29;;;;;;;44.10;29.75;;;;;;;;;;4954396;28;20063;-62
2022/03/15 09:22:57;;;;;;;39.97;28.05;;;;;;;;;;4953311;29;20061;-62
2022/03/15 09:25:26;;;;;;;33.28;27.55;;;;;;;;;;4953494;28;20428;-62
2022/03/15 09:27:53;;;;;;;28.02;24.42;;;;;;;;;;4954103;28;20466;-61
2022/03/15 09:30:22;;;;;;;35.15;27.05;;;;;;;;;;4948773;29;20058;-61
2022/03/15 09:32:51;;;;;;;34.17;30.52;;;;;;;;;;4955050;28;20130;-62
2022/03/15 09:35:20;;;;;;;31.85;28.35;;;;;;;;;;4953394;29;20059;-61
2022/03/15 09:37:49;;;;;;;35.25;30.20;;;;;;;;;;4954810;29;20051;-62
2022/03/15 09:40:23;;;;;;;34.30;28.67;;;;;;;;;;4953413;29;20051;-62
2022/03/15 09:42:56;;;;;;;38.80;28.48;;;;;;;;;;4954887;28;20051;-61
2022/03/15 09:45:29;;;;;;;36.30;31.85;;;;;;;;;;4954847;28;20119;-62
2022/03/15 09:48:00;;;;;;;33.08;28.95;;;;;;;;;;4953839;29;20055;-62
2022/03/15 09:50:29;;;;;;;35.03;29.95;;;;;;;;;;4956358;28;20044;-61
2022/03/15 09:52:59;;;;;;;35.78;30.77;;;;;;;;;;4955376;28;20055;-62
2022/03/15 09:55:27;;;;;;;35.67;28.92;;;;;;;;;;4958296;28;20549;-61
2022/03/15 09:57:58;;;;;;;34.17;28.90;;;;;;;;;;4958479;28;20051;-61
2022/03/15 10:00:29;;;;;;;32.72;27.75;;;;;;;;;;4958298;28;20187;-61
2022/03/15 10:02:58;;;;;;;40.67;30.58;;;;;;;;;;4957083;29;20569;-61
2022/03/15 10:05:25;;;;;;;35.00;30.05;;;;;;;;;;4949919;29;20086;-62
2022/03/15 10:07:54;;;;;;;39.35;31.27;;;;;;;;;;4956755;29;20550;-62
2022/03/15 10:10:24;;;;;;;38.47;31.08;;;;;;;;;;4952621;29;20406;-62
2022/03/15 10:12:53;;;;;;;39.80;29.85;;;;;;;;;;4957537;28;20047;-62
2022/03/15 10:15:22;;;;;;;39.40;31.15;;;;;;;;;;4957531;28;20051;-62
2022/03/15 10:17:53;;;;;;;33.92;29.65;;;;;;;;;;4957581;28;20058;-62
2022/03/15 10:20:28;;;;;;;35.53;30.73;;;;;;;;;;4957279;28;20067;-62
2022/03/15 10:22:57;;;;;;;;;;;;;;;;;;4955299;29;20521;-62
2022/03/15 10:25:31;;;;;;;36.88;31.02;;;;;;;;;;4956819;29;19922;-62
2022/03/15 10:28:01;;;;;;;34.20;29.83;;;;;;;;;;4953717;29;20132;-62
2022/03/15 10:30:32;;;;;;;38.85;30.15;;;;;;;;;;4957407;29;20047;-62
2022/03/15 10:33:00;;;;;;;38.13;29.52;;;;;;;;;;4955363;29;20051;-62
2022/03/15 10:35:30;;;;;;;36.85;31.85;;;;;;;;;;4957278;29;20055;-62
2022/03/15 10:37:59;;;;;;;39.00;29.77;;;;;;;;;;4952463;29;20152;-62
2022/03/15 10:40:48;;;;;;;38.65;27.83;;;;;;;;;;4957031;28;20048;-62
2022/03/15 10:43:24;;;;;;;30.17;25.83;;;;;;;;;;4956859;29;20055;-62
2022/03/15 10:45:58;;;;;;;38.50;30.73;;;;;;;;;;4953122;28;20414;-62
2022/03/15 10:48:30;;;;;;;33.08;29.50;;;;;;;;;;4970372;28;20375;-62
2022/03/15 10:51:08;;;;;;;33.22;26.17;;;;;;;;;;4956816;28;20106;-61
2022/03/15 10:53:44;;;;;;;30.38;27.08;;;;;;;;;;4952429;29;20667;-61
2022/03/15 10:56:15;;;;;;;29.15;25.58;;;;;;;;;;4951534;28;20114;-62
2022/03/15 10:58:52;;;;;;;34.78;27.05;;;;;;;;;;4954447;28;20113;-62
2022/03/15 11:01:24;;;;;;;30.55;27.45;;;;;;;;;;4957055;28;20047;-62
2022/03/15 11:04:00;;;;;;;29.92;26.52;;;;;;;;;;4949710;28;20066;-62
2022/03/15 11:06:32;;;;;;;30.58;26.95;;;;;;;;;;4944964;29;20051;-62
2022/03/15 11:09:38;;;;;;;33.45;29.92;;;;;;;;;;4956592;28;20055;-62
2022/03/15 11:12:09;;;;;;;47.60;40.30;;;;;;;;;;4957095;28;20060;-62
2022/03/15 11:14:49;;;;;;;44.75;40.25;;;;;;;;;;4956508;28;20059;-64
2022/03/15 11:17:24;;;;;;;46.75;41.78;;;;;;;;;;4956237;28;20051;-64
2022/03/15 11:19:52;;;;;;;39.20;35.10;;;;;;;;;;4957094;28;20047;-63
2022/03/15 11:22:27;;;;;;;34.75;31.17;;;;;;;;;;4955766;28;20044;-64
2022/03/15 11:25:12;;;;;;;30.88;27.23;;;;;;;;;;4956371;28;20546;-64
2022/03/15 11:27:41;;;;;;;31.27;27.90;;;;;;;;;;4956148;29;20059;-64
2022/03/15 11:30:14;;;;;;;29.63;26.52;;;;;;;;;;4955978;28;20055;-63
2022/03/15 11:32:42;;;;;;;28.65;25.73;;;;;;;;;;4956836;28;20094;-63
2022/03/15 11:35:22;;;;;;;30.45;27.35;;;;;;;;;;4955130;29;20055;-63
2022/03/15 11:37:52;;;;;;;30.55;22.83;;;;;;;;;;4957181;28;20061;-63
2022/03/15 11:40:20;;;;;;;28.60;25.65;;;;;;;;;;4955548;29;20054;-63
2022/03/15 11:42:56;;;;;;;25.65;23.08;;;;;;;;;;4956946;29;20066;-63
2022/03/15 11:45:32;;;;;;;33.00;26.48;;;;;;;;;;4956789;28;20075;-64
2022/03/15 11:48:20;;;;;;;26.65;22.63;;;;;;;;;;4955067;29;20142;-63
2022/03/15 11:51:07;;;;;;;29.70;22.70;;;;;;;;;;4955571;28;20055;-64
2022/03/15 11:53:42;;;;;;;26.33;23.67;;;;;;;;;;4956196;29;20410;-64
2022/03/15 11:56:37;;;;;;;28.75;23.25;;;;;;;;;;4951068;29;20055;-64
2022/03/15 11:59:06;;;;;;;25.40;22.73;;;;;;;;;;4954040;29;20182;-64
2022/03/15 12:01:45;;;;;;;26.27;23.80;;;;;;;;;;4956065;28;20066;-63
2022/03/15 12:04:14;;;;;;;28.45;23.45;;;;;;;;;;4954356;29;20051;-64
2022/03/15 12:06:54;;;;;;;26.92;24.30;;;;;;;;;;4955889;28;20047;-63
2022/03/15 12:09:25;;;;;;;24.17;21.65;;;;;;;;;;4955549;29;20063;-64
2022/03/15 12:12:06;;;;;;;24.55;22.02;;;;;;;;;;4954320;29;20055;-64
2022/03/15 12:14:44;;;;;;;25.70;22.98;;;;;;;;;;4954221;29;20056;-64
2022/03/15 12:17:13;;;;;;;26.38;23.55;;;;;;;;;;4954272;28;20138;-63
2022/03/15 12:19:49;;;;;;;24.15;21.77;;;;;;;;;;4956006;28;20542;-64
2022/03/15 12:22:34;;;;;;;26.25;23.52;;;;;;;;;;4952435;29;20053;-63
2022/03/15 12:25:06;;;;;;;25.65;23.02;;;;;;;;;;4955959;29;20051;-63
2022/03/15 12:28:20;;;;;;;24.58;22.17;;;;;;;;;;4953359;29;20102;-64
2022/03/15 12:30:53;;;;;;;28.63;24.20;;;;;;;;;;4956015;28;20047;-63
2022/03/15 12:33:26;;;;;;;26.48;23.73;;;;;;;;;;4955879;29;20051;-64
2022/03/15 12:36:08;;;;;;;25.00;22.42;;;;;;;;;;4955967;28;20502;-64
2022/03/15 12:38:42;;;;;;;25.58;23.08;;;;;;;;;;4955968;28;20138;-64
2022/03/15 12:41:11;;;;;;;25.10;22.45;;;;;;;;;;4956105;28;20142;-63
2022/03/15 12:43:39;;;;;;;24.60;21.33;;;;;;;;;;4955948;29;20059;-63
2022/03/15 12:46:09;;;;;;;25.80;23.10;;;;;;;;;;4954537;29;20065;-64
2022/03/15 12:48:42;;;;;;;26.85;21.85;;;;;;;;;;4955936;29;20058;-64
2022/03/15 12:51:18;;;;;;;25.45;22.67;;;;;;;;;;4953483;28;20046;-64
2022/03/15 12:53:48;;;;;;;23.83;21.13;;;;;;;;;;4955534;29;20055;-64
2022/03/15 12:56:18;;;;;;;22.75;20.45;;;;;;;;;;4954839;28;20058;-64
2022/03/15 12:58:46;;;;;;;27.75;24.23;;;;;;;;;;4955592;28;20101;-63
2022/03/15 13:01:15;;;;;;;27.60;22.35;;;;;;;;;;4954998;28;20051;-64
2022/03/15 13:03:46;;;;;;;23.95;21.58;;;;;;;;;;4954086;29;20039;-64
2022/03/15 13:06:18;;;;;;;24.45;22.05;;;;;;;;;;4954925;28;20063;-63
2022/03/15 13:08:59;;;;;;;25.83;22.85;;;;;;;;;;4955320;28;20062;-63
2022/03/15 13:11:29;;;;;;;32.30;24.52;;;;;;;;;;4951985;28;20051;-64
2022/03/15 13:13:59;;;;;;;27.80;23.55;;;;;;;;;;4955368;28;20133;-64
2022/03/15 13:16:27;;;;;;;27.55;23.25;;;;;;;;;;4955416;28;20054;-64
2022/03/15 13:18:56;;;;;;;30.65;21.95;;;;;;;;;;4953489;28;20129;-64
2022/03/15 13:21:29;;;;;;;31.67;24.65;;;;;;;;;;4954568;29;20490;-64
2022/03/15 13:24:07;;;;;;;26.47;23.37;;;;;;;;;;4955162;28;20051;-64
2022/03/15 13:26:38;;;;;;;27.63;23.10;;;;;;;;;;4954970;28;20110;-63
2022/03/15 13:29:08;;;;;;;28.55;23.38;;;;;;;;;;4954052;28;20043;-63
2022/03/15 13:31:36;;;;;;;28.13;23.52;;;;;;;;;;4954915;28;20138;-63
2022/03/15 13:34:04;;;;;;;26.23;22.05;;;;;;;;;;4954248;29;20122;-64
2022/03/15 13:36:34;;;;;;;26.27;23.50;;;;;;;;;;4955174;28;20043;-63
2022/03/15 13:39:12;;;;;;;27.95;23.15;;;;;;;;;;4954978;28;20062;-63
2022/03/15 13:41:48;;;;;;;23.85;21.33;;;;;;;;;;4952941;29;20523;-63
2022/03/15 13:44:20;;;;;;;25.42;22.63;;;;;;;;;;4932982;29;20047;-63
2022/03/15 13:46:51;;;;;;;26.77;21.30;;;;;;;;;;4954687;28;20059;-63
2022/03/15 13:49:28;;;;;;;23.40;20.95;;;;;;;;;;4955185;28;20062;-63
2022/03/15 13:52:06;;;;;;;28.90;22.23;;;;;;;;;;4954822;29;20511;-63
2022/03/15 13:55:02;;;;;;;27.73;21.90;;;;;;;;;;4952746;29;20047;-63
2022/03/15 13:57:37;;;;;;;24.52;20.80;;;;;;;;;;4952624;28;20128;-63
2022/03/15 14:00:17;;;;;;;23.98;21.45;;;;;;;;;;4954948;28;20414;-63
2022/03/15 14:02:50;;;;;;;25.02;20.55;;;;;;;;;;4955909;28;20061;-63
2022/03/15 14:05:23;;;;;;;24.60;21.25;;;;;;;;;;4954942;28;20514;-63
2022/03/15 14:08:09;;;;;;;35.88;22.15;;;;;;;;;;4954362;28;20047;-64
2022/03/15 14:10:39;;;;;;;22.88;20.15;;;;;;;;;;4953583;28;20063;-64
2022/03/15 14:13:17;;;;;;;34.83;22.05;;;;;;;;;;4953322;29;20070;-63
2022/03/15 14:15:47;;;;;;;24.90;20.30;;;;;;;;;;4954402;28;20411;-64
2022/03/15 14:18:25;;;;;;;24.90;21.42;;;;;;;;;;4953545;29;20482;-64
2022/03/15 14:20:56;;;;;;;23.98;21.48;;;;;;;;;;4954372;28;20056;-63
2022/03/15 14:23:29;;;;;;;23.83;20.80;;;;;;;;;;4953967;28;20044;-63
2022/03/15 14:26:03;;;;;;;24.27;21.73;;;;;;;;;;4951686;29;20071;-64
2022/03/15 14:28:32;;;;;;;33.70;22.48;;;;;;;;;;4954126;28;20410;-65
2022/03/15 14:31:02;;;;;;;26.83;22.20;;;;;;;;;;4954468;28;20138;-64
2022/03/15 14:33:31;;;;;;;26.45;23.27;;;;;;;;;;4954464;28;20135;-64
2022/03/15 14:36:01;;;;;;;26.85;20.75;;;;;;;;;;4954215;28;20516;-64
2022/03/15 14:38:41;;;;;;;24.80;22.20;;;;;;;;;;4954019;28;20066;-64
2022/03/15 14:41:11;;;;;;;23.30;20.80;;;;;;;;;;4956889;28;20402;-65
2022/03/15 14:43:48;;;;;;;23.92;21.38;;;;;;;;;;4949713;29;20149;-65